createdAt,value
2019-03-09T00:01:55.158Z,9.66
2019-03-09T00:04:24.686Z,9.73
2019-03-09T00:07:13.532Z,9.58
2019-03-09T00:09:43.403Z,9.71
2019-03-09T00:12:12.892Z,9.68
2019-03-09T00:14:42.430Z,9.70
2019-03-09T00:17:11.921Z,9.82
2019-03-09T00:19:41.419Z,9.72
2019-03-09T00:22:10.927Z,9.79
2019-03-09T00:24:44.545Z,10.00
2019-03-09T00:27:15.644Z,9.86
2019-03-09T00:29:49.467Z,9.75
2019-03-09T00:32:20.732Z,9.92
2019-03-09T00:34:50.244Z,9.86
2019-03-09T00:37:19.732Z,9.90
2019-03-09T00:39:49.290Z,9.60
2019-03-09T00:42:18.760Z,9.68
2019-03-09T00:44:48.324Z,9.47
2019-03-09T00:47:17.822Z,9.34
2019-03-09T00:49:47.322Z,9.13
2019-03-09T00:52:16.821Z,9.05
2019-03-09T00:54:46.312Z,9.15
2019-03-09T00:57:15.914Z,8.92
2019-03-09T00:59:45.397Z,8.70
2019-03-09T01:02:15.260Z,8.81
2019-03-09T01:04:44.739Z,8.80
2019-03-09T01:07:14.314Z,8.73
2019-03-09T01:09:43.836Z,8.65
2019-03-09T01:12:13.354Z,8.74
2019-03-09T01:14:42.932Z,8.68
2019-03-09T01:17:12.465Z,8.61
2019-03-09T01:19:42.014Z,8.44
2019-03-09T01:22:11.653Z,8.39
2019-03-09T01:24:41.189Z,8.46
2019-03-09T01:27:10.661Z,8.54
2019-03-09T01:29:40.156Z,8.39
2019-03-09T01:32:09.643Z,8.37
2019-03-09T01:34:39.176Z,8.44
2019-03-09T01:37:08.737Z,8.44
2019-03-09T01:39:38.286Z,8.44
2019-03-09T01:42:07.833Z,8.45
2019-03-09T01:44:37.319Z,8.35
2019-03-09T01:47:06.828Z,8.27
2019-03-09T01:49:36.373Z,8.13
2019-03-09T01:52:06.010Z,8.29
2019-03-09T01:54:35.504Z,8.23
2019-03-09T01:57:04.982Z,8.26
2019-03-09T01:59:34.470Z,8.19
2019-03-09T02:02:04.011Z,8.13
2019-03-09T02:04:33.488Z,8.17
2019-03-09T02:07:02.983Z,8.03
2019-03-09T02:09:32.559Z,8.10
2019-03-09T02:12:02.120Z,8.04
2019-03-09T02:14:31.623Z,8.08
2019-03-09T02:17:01.135Z,7.91
2019-03-09T02:19:30.608Z,8.01
2019-03-09T02:22:00.113Z,8.00
2019-03-09T02:24:29.664Z,8.09
2019-03-09T02:26:59.167Z,8.20
2019-03-09T02:29:28.714Z,8.11
2019-03-09T02:31:58.223Z,8.16
2019-03-09T02:34:27.715Z,8.14
2019-03-09T02:36:57.225Z,8.08
2019-03-09T02:39:31.039Z,7.97
2019-03-09T02:42:00.805Z,8.07
2019-03-09T02:44:30.296Z,8.16
2019-03-09T02:46:59.812Z,8.06
2019-03-09T02:49:29.306Z,8.11
2019-03-09T02:51:58.811Z,8.01
2019-03-09T02:54:28.291Z,8.01
2019-03-09T02:56:57.802Z,8.07
2019-03-09T02:59:27.297Z,8.15
2019-03-09T03:01:58.472Z,7.99
2019-03-09T03:04:27.965Z,8.04
2019-03-09T03:06:57.443Z,8.10
2019-03-09T03:09:26.982Z,8.17
2019-03-09T03:11:56.470Z,8.09
2019-03-09T03:14:25.966Z,8.27
2019-03-09T03:16:55.456Z,8.14
2019-03-09T03:19:24.949Z,8.28
2019-03-09T03:21:54.431Z,8.42
2019-03-09T03:24:23.929Z,8.48
2019-03-09T03:26:53.414Z,8.50
2019-03-09T03:29:22.911Z,8.58
2019-03-09T03:31:52.399Z,8.57
2019-03-09T03:34:21.927Z,8.70
2019-03-09T03:36:51.458Z,8.77
2019-03-09T03:39:20.953Z,8.70
2019-03-09T03:41:50.521Z,8.71
2019-03-09T03:44:20.019Z,8.89
2019-03-09T03:46:49.566Z,8.94
2019-03-09T03:49:19.098Z,8.89
2019-03-09T03:51:48.567Z,8.93
2019-03-09T03:54:18.073Z,8.82
2019-03-09T03:56:47.768Z,8.81
2019-03-09T03:59:17.444Z,8.84
2019-03-09T04:01:47.109Z,8.92
2019-03-09T04:04:16.796Z,8.85
2019-03-09T04:06:46.339Z,8.85
2019-03-09T04:09:15.980Z,8.94
2019-03-09T04:11:45.902Z,9.03
2019-03-09T04:14:15.471Z,9.02
2019-03-09T04:16:44.953Z,8.98
2019-03-09T04:19:14.451Z,9.16
2019-03-09T04:21:44.113Z,9.00
2019-03-09T04:24:13.636Z,9.15
2019-03-09T04:26:43.203Z,9.18
2019-03-09T04:29:12.846Z,8.99
2019-03-09T04:31:42.350Z,9.16
2019-03-09T04:34:11.846Z,9.33
2019-03-09T04:36:41.322Z,9.28
2019-03-09T04:39:10.814Z,9.25
2019-03-09T04:41:40.398Z,9.13
2019-03-09T04:44:09.916Z,9.13
2019-03-09T04:46:39.414Z,9.20
2019-03-09T04:49:08.910Z,9.17
2019-03-09T04:51:38.396Z,9.22
2019-03-09T04:54:07.918Z,9.23
2019-03-09T04:56:37.406Z,9.28
2019-03-09T04:59:06.923Z,9.32
2019-03-09T05:01:36.465Z,9.11
2019-03-09T05:04:32.867Z,9.12
2019-03-09T05:07:02.363Z,9.16
2019-03-09T05:09:51.868Z,9.33
2019-03-09T05:12:21.363Z,9.21
2019-03-09T05:14:50.878Z,9.43
2019-03-09T05:17:20.383Z,9.49
2019-03-09T05:19:49.867Z,9.31
2019-03-09T05:22:19.463Z,9.53
2019-03-09T05:24:48.948Z,9.57
2019-03-09T05:27:18.450Z,9.51
2019-03-09T05:29:47.925Z,9.58
2019-03-09T05:32:17.422Z,9.55
2019-03-09T05:34:46.923Z,9.46
2019-03-09T05:37:16.410Z,9.68
2019-03-09T05:39:45.925Z,9.63
2019-03-09T05:42:15.413Z,9.74
2019-03-09T05:44:44.911Z,9.82
2019-03-09T05:47:14.425Z,9.83
2019-03-09T05:49:43.942Z,9.85
2019-03-09T05:52:24.403Z,9.87
2019-03-09T05:54:53.906Z,9.94
2019-03-09T05:57:23.385Z,9.82
2019-03-09T05:59:52.885Z,9.78
2019-03-09T06:02:22.463Z,9.79
2019-03-09T06:04:52.015Z,9.75
2019-03-09T06:07:21.565Z,9.55
2019-03-09T06:09:51.019Z,9.70
2019-03-09T06:12:20.519Z,9.53
2019-03-09T06:14:50.223Z,9.64
2019-03-09T06:17:19.724Z,9.67
2019-03-09T06:19:49.401Z,9.48
2019-03-09T06:22:18.967Z,9.42
2019-03-09T06:25:07.944Z,9.46
2019-03-09T06:27:37.438Z,9.52
2019-03-09T06:30:08.732Z,9.54
2019-03-09T06:32:42.897Z,9.52
2019-03-09T06:35:25.261Z,9.81
2019-03-09T06:38:23.627Z,9.92
2019-03-09T06:41:02.468Z,10.08
2019-03-09T06:43:24.361Z,10.19
2019-03-09T06:45:53.865Z,10.16
2019-03-09T06:48:23.354Z,10.51
2019-03-09T06:50:52.831Z,10.62
2019-03-09T06:53:22.350Z,10.90
2019-03-09T06:55:51.834Z,10.78
2019-03-09T06:58:21.348Z,10.76
2019-03-09T07:00:50.850Z,10.85
2019-03-09T07:03:20.340Z,10.83
2019-03-09T07:05:49.831Z,10.87
2019-03-09T07:08:19.390Z,10.98
2019-03-09T07:10:49.002Z,11.04
2019-03-09T07:13:18.539Z,10.93
2019-03-09T07:15:48.218Z,10.79
2019-03-09T07:18:18.382Z,10.92
2019-03-09T07:20:48.029Z,10.90
2019-03-09T07:23:17.528Z,10.94
2019-03-09T07:25:47.161Z,10.89
2019-03-09T07:28:16.951Z,10.83
2019-03-09T07:30:46.521Z,10.94
2019-03-09T07:33:15.995Z,11.00
2019-03-09T07:35:45.582Z,11.10
2019-03-09T07:38:15.145Z,11.07
2019-03-09T07:40:44.700Z,11.10
2019-03-09T07:43:14.218Z,11.13
2019-03-09T07:45:43.864Z,11.08
2019-03-09T07:48:13.540Z,11.40
2019-03-09T07:50:43.120Z,11.35
2019-03-09T07:53:12.742Z,11.32
2019-03-09T07:55:42.262Z,11.52
2019-03-09T07:58:11.765Z,11.39
2019-03-09T08:00:41.337Z,11.56
2019-03-09T08:03:11.004Z,11.61
2019-03-09T08:05:40.522Z,11.52
2019-03-09T08:08:09.967Z,11.68
2019-03-09T08:10:39.536Z,11.47
2019-03-09T08:13:09.099Z,11.53
2019-03-09T08:15:38.784Z,11.70
2019-03-09T08:18:08.268Z,11.74
2019-03-09T08:20:37.847Z,11.90
2019-03-09T08:23:07.318Z,11.75
2019-03-09T08:25:36.811Z,11.67
2019-03-09T08:28:06.462Z,11.73
2019-03-09T08:30:36.052Z,11.67
2019-03-09T08:33:05.613Z,11.72
2019-03-09T08:35:35.229Z,11.78
2019-03-09T08:38:04.846Z,11.65
2019-03-09T08:40:34.516Z,11.64
2019-03-09T08:43:03.998Z,11.71
2019-03-09T08:45:33.615Z,11.47
2019-03-09T08:48:03.113Z,11.77
2019-03-09T08:50:32.627Z,11.66
2019-03-09T08:53:02.108Z,11.65
2019-03-09T08:55:31.623Z,11.74
2019-03-09T08:58:01.115Z,11.81
2019-03-09T09:00:35.576Z,12.01
2019-03-09T09:03:05.202Z,12.03
2019-03-09T09:05:34.712Z,12.25
2019-03-09T09:08:04.242Z,12.40
2019-03-09T09:10:33.769Z,12.52
2019-03-09T09:13:03.266Z,12.53
2019-03-09T09:15:32.760Z,12.59
2019-03-09T09:18:02.297Z,12.62
2019-03-09T09:20:31.795Z,12.70
2019-03-09T09:23:01.280Z,12.76
2019-03-09T09:25:30.810Z,12.87
2019-03-09T09:28:00.400Z,12.87
2019-03-09T09:30:31.710Z,12.69
2019-03-09T09:33:01.184Z,12.77
2019-03-09T09:35:30.765Z,12.53
2019-03-09T09:38:00.277Z,12.81
2019-03-09T09:40:29.831Z,12.69
2019-03-09T09:42:59.409Z,12.43
2019-03-09T09:45:29.005Z,12.68
2019-03-09T09:47:58.480Z,12.51
2019-03-09T09:50:27.978Z,12.62
2019-03-09T09:52:57.472Z,12.71
2019-03-09T09:55:27.032Z,12.57
2019-03-09T09:57:57.806Z,12.39
2019-03-09T10:00:28.989Z,12.79
2019-03-09T10:02:58.520Z,13.02
2019-03-09T10:05:28.006Z,13.04
2019-03-09T10:07:57.511Z,12.91
2019-03-09T10:10:27.005Z,12.83
2019-03-09T10:12:56.603Z,12.76
2019-03-09T10:15:30.042Z,13.16
2019-03-09T10:17:59.669Z,13.28
2019-03-09T10:20:29.209Z,13.69
2019-03-09T10:23:04.028Z,14.07
2019-03-09T10:25:29.958Z,14.07
2019-03-09T10:27:59.449Z,14.04
2019-03-09T10:30:29.104Z,14.61
2019-03-09T10:32:58.603Z,14.15
2019-03-09T10:35:28.083Z,14.46
2019-03-09T10:37:57.596Z,14.51
2019-03-09T10:40:27.085Z,14.49
2019-03-09T10:42:56.623Z,14.26
2019-03-09T10:45:26.104Z,14.07
2019-03-09T10:47:55.674Z,13.87
2019-03-09T10:50:26.082Z,14.07
2019-03-09T10:52:55.715Z,13.87
2019-03-09T10:55:33.629Z,14.06
2019-03-09T10:58:03.227Z,13.96
2019-03-09T11:00:42.227Z,14.02
2019-03-09T11:03:11.789Z,13.91
2019-03-09T11:05:41.355Z,13.77
2019-03-09T11:08:11.022Z,13.79
2019-03-09T11:10:40.527Z,13.86
2019-03-09T11:13:10.029Z,13.73
2019-03-09T11:15:39.574Z,13.64
2019-03-09T11:18:09.057Z,13.78
2019-03-09T11:20:38.625Z,13.90
2019-03-09T11:23:08.264Z,13.76
2019-03-09T11:25:37.698Z,13.96
2019-03-09T11:28:12.899Z,14.01
2019-03-09T11:30:42.517Z,14.03
2019-03-09T11:33:12.080Z,14.29
2019-03-09T11:35:41.591Z,14.45
2019-03-09T11:38:12.037Z,14.51
2019-03-09T11:40:41.590Z,14.68
2019-03-09T11:43:11.149Z,14.94
2019-03-09T11:45:40.872Z,14.49
2019-03-09T11:48:10.445Z,14.67
2019-03-09T11:50:39.947Z,15.08
2019-03-09T11:53:09.538Z,15.23
2019-03-09T11:55:39.023Z,15.64
2019-03-09T11:58:08.579Z,15.38
2019-03-09T12:00:39.724Z,15.85
2019-03-09T12:03:09.233Z,15.38
2019-03-09T12:05:38.808Z,14.96
2019-03-09T12:08:08.366Z,15.27
2019-03-09T12:10:37.905Z,15.39
2019-03-09T12:13:07.475Z,16.24
2019-03-09T12:15:37.002Z,16.54
2019-03-09T12:18:06.488Z,16.54
2019-03-09T12:20:36.018Z,16.89
2019-03-09T12:23:15.683Z,16.88
2019-03-09T12:25:45.192Z,16.70
2019-03-09T12:28:14.781Z,16.84
2019-03-09T12:30:44.311Z,17.41
2019-03-09T12:33:13.825Z,17.02
2019-03-09T12:35:44.198Z,16.23
2019-03-09T12:38:13.894Z,15.88
2019-03-09T12:40:43.440Z,15.67
2019-03-09T12:43:13.022Z,15.61
2019-03-09T12:45:42.537Z,15.84
2019-03-09T12:48:12.105Z,15.94
2019-03-09T12:50:41.621Z,15.62
2019-03-09T12:53:11.128Z,15.96
2019-03-09T12:55:40.690Z,16.27
2019-03-09T12:58:10.383Z,16.63
2019-03-09T13:00:40.026Z,16.47
2019-03-09T13:03:09.598Z,16.37
2019-03-09T13:05:39.168Z,16.37
2019-03-09T13:08:08.727Z,16.15
2019-03-09T13:10:38.211Z,16.06
2019-03-09T13:13:07.791Z,15.62
2019-03-09T13:15:37.375Z,15.34
2019-03-09T13:18:06.873Z,15.28
2019-03-09T13:20:36.452Z,14.92
2019-03-09T13:23:06.016Z,14.87
2019-03-09T13:25:35.543Z,14.74
2019-03-09T13:28:05.106Z,14.80
2019-03-09T13:30:34.962Z,14.72
2019-03-09T13:33:04.659Z,14.57
2019-03-09T13:35:34.224Z,14.59
2019-03-09T13:38:03.804Z,14.85
2019-03-09T13:40:33.313Z,14.46
2019-03-09T13:43:02.830Z,14.82
2019-03-09T13:45:32.351Z,15.62
2019-03-09T13:48:01.840Z,15.32
2019-03-09T13:50:31.348Z,15.17
2019-03-09T13:53:00.852Z,14.57
2019-03-09T13:55:30.426Z,14.06
2019-03-09T13:57:59.937Z,13.87
2019-03-09T14:00:39.735Z,13.72
2019-03-09T14:03:03.012Z,13.05
2019-03-09T14:05:31.998Z,12.29
2019-03-09T14:08:01.510Z,11.95
2019-03-09T14:10:31.006Z,11.32
2019-03-09T14:13:01.842Z,11.21
2019-03-09T14:15:31.395Z,11.40
2019-03-09T14:18:00.964Z,11.32
2019-03-09T14:20:30.467Z,11.20
2019-03-09T14:22:59.975Z,11.16
2019-03-09T14:25:29.480Z,11.39
2019-03-09T14:27:59.024Z,11.45
2019-03-09T14:30:28.526Z,11.34
2019-03-09T14:32:58.047Z,11.45
2019-03-09T14:35:27.564Z,11.59
2019-03-09T14:37:57.484Z,11.69
2019-03-09T14:40:26.964Z,11.78
2019-03-09T14:42:57.740Z,12.01
2019-03-09T14:45:27.327Z,12.66
2019-03-09T14:47:56.975Z,12.85
2019-03-09T14:50:26.495Z,12.40
2019-03-09T14:52:55.995Z,12.17
2019-03-09T14:55:25.505Z,12.23
2019-03-09T14:57:55.016Z,12.22
2019-03-09T15:00:27.115Z,12.15
2019-03-09T15:02:56.636Z,12.20
2019-03-09T15:05:26.213Z,12.26
2019-03-09T15:07:55.743Z,12.26
2019-03-09T15:10:25.242Z,11.91
2019-03-09T15:12:54.771Z,12.03
2019-03-09T15:15:24.381Z,11.97
2019-03-09T15:17:53.978Z,11.99
2019-03-09T15:20:23.528Z,12.01
2019-03-09T15:22:53.114Z,11.81
2019-03-09T15:25:22.717Z,11.87
2019-03-09T15:27:52.279Z,11.99
2019-03-09T15:30:22.117Z,12.10
2019-03-09T15:32:51.678Z,12.27
2019-03-09T15:35:21.221Z,12.26
2019-03-09T15:37:50.671Z,12.30
2019-03-09T15:40:21.108Z,12.00
2019-03-09T15:42:50.704Z,12.03
2019-03-09T15:45:21.086Z,12.12
2019-03-09T15:47:50.681Z,12.50
2019-03-09T15:50:22.171Z,12.45
2019-03-09T15:52:51.841Z,12.39
2019-03-09T15:55:21.482Z,12.21
2019-03-09T15:57:51.114Z,12.56
2019-03-09T16:00:25.066Z,12.97
2019-03-09T16:02:54.728Z,13.21
2019-03-09T16:05:24.240Z,13.11
2019-03-09T16:07:53.859Z,12.94
2019-03-09T16:10:23.737Z,12.90
2019-03-09T16:12:53.484Z,12.64
2019-03-09T16:15:23.065Z,12.49
2019-03-09T16:17:52.628Z,11.99
2019-03-09T16:20:28.261Z,11.66
2019-03-09T16:22:57.785Z,11.54
2019-03-09T16:25:28.994Z,11.49
2019-03-09T16:27:59.100Z,11.47
2019-03-09T16:30:28.632Z,11.27
2019-03-09T16:32:58.126Z,10.72
2019-03-09T16:35:27.665Z,10.49
2019-03-09T16:37:57.151Z,10.46
2019-03-09T16:40:27.020Z,10.45
2019-03-09T16:42:57.927Z,10.66
2019-03-09T16:45:27.406Z,10.69
2019-03-09T16:47:56.912Z,10.76
2019-03-09T16:50:26.511Z,10.86
2019-03-09T16:52:56.070Z,10.86
2019-03-09T16:55:25.643Z,10.82
2019-03-09T16:57:55.236Z,10.97
2019-03-09T17:00:25.669Z,10.87
2019-03-09T17:02:55.171Z,11.03
2019-03-09T17:05:24.757Z,11.02
2019-03-09T17:07:54.325Z,11.03
2019-03-09T17:10:23.860Z,11.12
2019-03-09T17:12:53.514Z,11.04
2019-03-09T17:15:26.352Z,11.07
2019-03-09T17:17:55.867Z,11.00
2019-03-09T17:20:25.382Z,10.89
2019-03-09T17:22:54.894Z,10.97
2019-03-09T17:25:24.569Z,10.71
2019-03-09T17:27:54.162Z,10.28
2019-03-09T17:30:23.794Z,10.13
2019-03-09T17:32:53.279Z,10.01
2019-03-09T17:35:22.937Z,10.01
2019-03-09T17:37:52.467Z,9.83
2019-03-09T17:40:22.083Z,9.79
2019-03-09T17:42:51.540Z,9.66
2019-03-09T17:45:28.238Z,9.82
2019-03-09T17:47:57.853Z,9.66
2019-03-09T17:50:27.489Z,9.72
2019-03-09T17:52:57.052Z,9.94
2019-03-09T17:55:26.593Z,9.95
2019-03-09T17:57:56.045Z,9.90
2019-03-09T18:00:42.207Z,10.04
2019-03-09T18:03:05.967Z,10.03
2019-03-09T18:05:35.607Z,10.35
2019-03-09T18:08:05.256Z,10.48
2019-03-09T18:11:00.114Z,10.68
2019-03-09T18:13:29.668Z,10.83
2019-03-09T18:15:59.127Z,10.82
2019-03-09T18:18:28.617Z,10.84
2019-03-09T18:20:58.188Z,10.95
2019-03-09T18:23:27.719Z,10.96
2019-03-09T18:25:57.279Z,10.79
2019-03-09T18:28:26.929Z,10.77
2019-03-09T18:30:56.433Z,10.74
2019-03-09T18:33:26.023Z,10.73
2019-03-09T18:35:55.608Z,10.64
2019-03-09T18:38:25.126Z,10.56
2019-03-09T18:40:54.702Z,10.63
2019-03-09T18:43:24.267Z,10.78
2019-03-09T18:45:53.791Z,10.78
2019-03-09T18:48:23.452Z,10.82
2019-03-09T18:50:52.971Z,10.69
2019-03-09T18:53:22.636Z,10.51
2019-03-09T18:55:59.156Z,10.55
2019-03-09T18:58:23.451Z,10.51
2019-03-09T19:00:53.131Z,10.50
2019-03-09T19:03:22.646Z,10.51
2019-03-09T19:05:52.221Z,10.52
2019-03-09T19:08:21.717Z,10.54
2019-03-09T19:10:51.222Z,10.41
2019-03-09T19:13:20.744Z,10.32
2019-03-09T19:15:50.278Z,10.37
2019-03-09T19:18:19.771Z,10.44
2019-03-09T19:20:49.366Z,10.41
2019-03-09T19:23:18.868Z,10.43
2019-03-09T19:25:48.340Z,10.42
2019-03-09T19:28:18.003Z,10.35
2019-03-09T19:30:50.573Z,10.39
2019-03-09T19:33:20.088Z,10.42
2019-03-09T19:35:49.678Z,10.42
2019-03-09T19:38:19.161Z,10.37
2019-03-09T19:40:48.740Z,10.35
2019-03-09T19:43:18.268Z,10.27
2019-03-09T19:45:47.829Z,10.30
2019-03-09T19:48:17.418Z,10.29
2019-03-09T19:50:46.981Z,10.24
2019-03-09T19:53:16.450Z,10.22
2019-03-09T19:55:45.997Z,10.15
2019-03-09T19:58:15.485Z,9.98
2019-03-09T20:00:45.029Z,10.06
2019-03-09T20:03:14.551Z,10.15
2019-03-09T20:05:44.193Z,10.13
2019-03-09T20:08:13.853Z,10.05
2019-03-09T20:10:43.393Z,10.03
2019-03-09T20:13:12.952Z,9.99
2019-03-09T20:15:42.652Z,9.84
2019-03-09T20:18:12.201Z,9.58
2019-03-09T20:20:41.700Z,9.88
2019-03-09T20:23:11.212Z,9.92
2019-03-09T20:25:40.732Z,9.88
2019-03-09T20:28:10.305Z,9.70
2019-03-09T20:30:39.846Z,9.50
2019-03-09T20:33:09.367Z,9.42
2019-03-09T20:35:38.971Z,9.56
2019-03-09T20:38:08.539Z,9.50
2019-03-09T20:40:38.036Z,9.56
2019-03-09T20:43:07.594Z,9.65
2019-03-09T20:45:37.084Z,9.62
2019-03-09T20:48:06.587Z,9.62
2019-03-09T20:50:36.153Z,9.47
2019-03-09T20:53:05.733Z,9.61
2019-03-09T20:55:35.288Z,9.71
2019-03-09T20:58:04.859Z,9.71
2019-03-09T21:00:34.377Z,9.62
2019-03-09T21:03:03.862Z,9.36
2019-03-09T21:05:33.378Z,9.50
2019-03-09T21:08:02.927Z,9.49
2019-03-09T21:10:32.408Z,9.42
2019-03-09T21:13:10.892Z,9.72
2019-03-09T21:15:40.497Z,9.84
2019-03-09T21:18:09.974Z,9.29
2019-03-09T21:20:39.552Z,9.45
2019-03-09T21:23:09.053Z,9.38
2019-03-09T21:25:38.598Z,9.52
2019-03-09T21:28:08.175Z,9.59
2019-03-09T21:30:37.665Z,9.55
2019-03-09T21:33:07.173Z,9.70
2019-03-09T21:35:36.818Z,9.77
2019-03-09T21:38:06.427Z,9.70
2019-03-09T21:40:35.893Z,9.54
2019-03-09T21:43:05.657Z,9.63
2019-03-09T21:45:35.151Z,9.36
2019-03-09T21:48:04.739Z,9.30
2019-03-09T21:50:34.333Z,9.51
2019-03-09T21:53:03.883Z,9.42
2019-03-09T21:55:33.435Z,9.39
2019-03-09T21:58:02.906Z,9.44
2019-03-09T22:00:32.486Z,9.65
2019-03-09T22:03:01.988Z,9.76
2019-03-09T22:05:31.565Z,9.63
2019-03-09T22:08:01.138Z,9.66
2019-03-09T22:10:30.648Z,9.85
2019-03-09T22:13:00.115Z,9.77
2019-03-09T22:15:29.615Z,9.86
2019-03-09T22:17:59.367Z,9.58
2019-03-09T22:20:28.886Z,9.68
2019-03-09T22:22:58.398Z,9.57
2019-03-09T22:25:27.905Z,9.57
2019-03-09T22:27:57.579Z,9.48
2019-03-09T22:30:27.085Z,9.68
2019-03-09T22:32:56.579Z,9.65
2019-03-09T22:35:26.179Z,9.63
2019-03-09T22:37:55.675Z,9.52
2019-03-09T22:40:25.196Z,9.71
2019-03-09T22:42:54.763Z,9.58
2019-03-09T22:45:24.395Z,9.65
2019-03-09T22:47:53.899Z,9.66
2019-03-09T22:50:26.328Z,9.68
2019-03-09T22:52:56.191Z,9.62
2019-03-09T22:55:25.749Z,9.68
2019-03-09T22:57:55.241Z,9.58
2019-03-09T23:00:27.691Z,9.72
2019-03-09T23:02:57.607Z,9.64
2019-03-09T23:05:27.228Z,9.63
2019-03-09T23:07:56.794Z,9.75
2019-03-09T23:10:28.304Z,9.73
2019-03-09T23:12:59.587Z,9.75
2019-03-09T23:15:29.309Z,9.57
2019-03-09T23:17:58.807Z,9.71
2019-03-09T23:20:28.345Z,9.73
2019-03-09T23:22:57.879Z,9.66
2019-03-09T23:25:27.463Z,9.75
2019-03-09T23:27:56.957Z,9.57
2019-03-09T23:30:26.525Z,9.70
2019-03-09T23:32:56.037Z,9.74
2019-03-09T23:35:25.560Z,9.76
2019-03-09T23:37:55.123Z,9.88
2019-03-09T23:40:25.017Z,9.83
2019-03-09T23:42:54.611Z,9.87
2019-03-09T23:45:27.928Z,9.75
2019-03-09T23:47:57.591Z,9.87
2019-03-09T23:50:27.594Z,9.76
2019-03-09T23:52:57.375Z,9.88
2019-03-09T23:55:26.931Z,9.90
2019-03-09T23:57:56.490Z,9.97
